createdAt,value
2018-08-04T00:01:35.645Z,27.40
2018-08-04T00:04:05.460Z,27.30
2018-08-04T00:06:36.204Z,27.40
2018-08-04T00:09:09.833Z,27.40
2018-08-04T00:11:39.570Z,27.40
2018-08-04T00:14:09.247Z,27.30
2018-08-04T00:16:38.882Z,27.40
2018-08-04T00:19:08.979Z,27.40
2018-08-04T00:21:38.753Z,27.40
2018-08-04T00:24:08.393Z,27.40
2018-08-04T00:26:38.039Z,27.50
2018-08-04T00:29:07.728Z,27.50
2018-08-04T00:31:37.358Z,27.30
2018-08-04T00:34:06.975Z,27.20
2018-08-04T00:36:36.539Z,27.30
2018-08-04T00:39:07.694Z,27.20
2018-08-04T00:41:37.337Z,27.20
2018-08-04T00:44:06.965Z,27.20
2018-08-04T00:46:36.655Z,27.20
2018-08-04T00:49:06.284Z,27.20
2018-08-04T00:51:35.905Z,27.30
2018-08-04T00:54:05.521Z,27.30
2018-08-04T00:56:35.117Z,27.40
2018-08-04T00:59:04.758Z,27.30
2018-08-04T01:01:34.393Z,27.10
2018-08-04T01:04:04.107Z,27.10
2018-08-04T01:06:33.797Z,27.00
2018-08-04T01:09:03.573Z,27.00
2018-08-04T01:11:33.159Z,27.00
2018-08-04T01:14:02.738Z,26.90
2018-08-04T01:16:32.368Z,27.00
2018-08-04T01:19:01.986Z,26.90
2018-08-04T01:21:31.600Z,27.00
2018-08-04T01:24:01.200Z,27.00
2018-08-04T01:26:31.036Z,26.90
2018-08-04T01:29:00.649Z,27.00
2018-08-04T01:31:30.263Z,27.00
2018-08-04T01:33:59.833Z,26.80
2018-08-04T01:36:29.437Z,26.80
2018-08-04T01:38:59.122Z,26.80
2018-08-04T01:41:28.710Z,26.90
2018-08-04T01:44:04.048Z,26.90
2018-08-04T01:46:33.968Z,26.90
2018-08-04T01:49:03.657Z,26.80
2018-08-04T01:51:33.538Z,26.70
2018-08-04T01:54:04.267Z,26.60
2018-08-04T01:56:34.076Z,26.60
2018-08-04T01:59:03.803Z,26.70
2018-08-04T02:01:33.522Z,26.50
2018-08-04T02:04:03.164Z,26.40
2018-08-04T02:06:32.970Z,26.40
2018-08-04T02:09:02.726Z,26.50
2018-08-04T02:11:32.361Z,26.50
2018-08-04T02:14:01.975Z,26.40
2018-08-04T02:16:31.601Z,26.40
2018-08-04T02:19:01.315Z,26.50
2018-08-04T02:21:30.995Z,26.60
2018-08-04T02:24:00.690Z,26.60
2018-08-04T02:26:30.346Z,26.50
2018-08-04T02:29:00.021Z,26.50
2018-08-04T02:31:29.654Z,26.50
2018-08-04T02:33:59.304Z,26.50
2018-08-04T02:36:28.998Z,26.50
2018-08-04T02:38:58.680Z,26.40
2018-08-04T02:41:28.351Z,26.40
2018-08-04T02:43:57.913Z,26.40
2018-08-04T02:46:27.545Z,26.20
2018-08-04T02:48:57.174Z,26.20
2018-08-04T02:51:26.769Z,26.30
2018-08-04T02:53:56.408Z,26.30
2018-08-04T02:56:25.938Z,26.30
2018-08-04T02:58:55.634Z,26.30
2018-08-04T03:01:25.256Z,26.40
2018-08-04T03:03:54.808Z,26.30
2018-08-04T03:06:24.383Z,26.20
2018-08-04T03:08:54.094Z,26.40
2018-08-04T03:11:23.695Z,26.30
2018-08-04T03:13:53.293Z,26.30
2018-08-04T03:16:22.943Z,26.20
2018-08-04T03:21:21.716Z,26.20
2018-08-04T03:23:51.246Z,26.20
2018-08-04T03:26:20.795Z,26.00
2018-08-04T03:28:50.405Z,25.90
2018-08-04T03:31:20.010Z,26.10
2018-08-04T03:33:49.586Z,26.00
2018-08-04T03:36:19.175Z,26.00
2018-08-04T03:38:48.744Z,26.00
2018-08-04T03:41:18.305Z,26.20
2018-08-04T03:43:48.047Z,26.00
2018-08-04T03:46:17.598Z,26.10
2018-08-04T03:48:47.252Z,26.20
2018-08-04T03:51:16.830Z,26.10
2018-08-04T03:53:46.420Z,26.10
2018-08-04T03:56:16.051Z,26.20
2018-08-04T03:58:45.730Z,26.20
2018-08-04T04:01:15.354Z,26.10
2018-08-04T04:03:44.955Z,26.00
2018-08-04T04:06:14.565Z,26.00
2018-08-04T04:08:44.116Z,26.00
2018-08-04T04:11:13.741Z,26.00
2018-08-04T04:13:43.285Z,26.00
2018-08-04T04:16:12.985Z,26.00
2018-08-04T04:18:42.609Z,26.00
2018-08-04T04:21:12.249Z,26.10
2018-08-04T04:23:41.805Z,26.10
2018-08-04T04:26:11.370Z,26.10
2018-08-04T04:28:41.056Z,26.10
2018-08-04T04:31:10.634Z,26.20
2018-08-04T04:33:40.200Z,26.20
2018-08-04T04:36:09.800Z,26.20
2018-08-04T04:38:39.391Z,26.20
2018-08-04T04:42:10.817Z,26.20
2018-08-04T04:44:40.431Z,26.20
2018-08-04T04:47:09.989Z,26.20
2018-08-04T04:49:39.636Z,26.30
2018-08-04T04:52:09.277Z,26.40
2018-08-04T04:54:38.915Z,26.40
2018-08-04T04:57:08.522Z,26.30
2018-08-04T04:59:38.070Z,26.30
2018-08-04T05:02:07.653Z,26.40
2018-08-04T05:04:37.289Z,26.30
2018-08-04T05:07:06.992Z,26.30
2018-08-04T05:09:36.544Z,26.30
2018-08-04T05:12:06.327Z,26.30
2018-08-04T05:14:35.971Z,26.40
2018-08-04T05:17:05.602Z,26.40
2018-08-04T05:19:35.265Z,26.40
2018-08-04T05:22:38.411Z,26.40
2018-08-04T05:25:08.470Z,26.50
2018-08-04T05:27:38.028Z,26.50
2018-08-04T05:30:08.271Z,26.50
2018-08-04T05:32:37.886Z,26.50
2018-08-04T05:35:07.504Z,26.60
2018-08-04T05:37:37.138Z,26.70
2018-08-04T05:40:07.386Z,26.70
2018-08-04T05:42:37.005Z,26.80
2018-08-04T05:45:07.865Z,26.80
2018-08-04T05:47:37.579Z,26.80
2018-08-04T05:50:07.933Z,26.80
2018-08-04T05:52:37.545Z,26.90
2018-08-04T05:55:07.377Z,26.90
2018-08-04T05:57:38.110Z,26.90
2018-08-04T06:00:09.234Z,27.10
2018-08-04T06:02:44.191Z,27.10
2018-08-04T06:05:13.773Z,27.10
2018-08-04T06:07:43.292Z,27.20
2018-08-04T06:10:18.254Z,27.20
2018-08-04T06:12:47.828Z,27.30
2018-08-04T06:15:18.346Z,27.40
2018-08-04T06:17:47.924Z,27.50
2018-08-04T06:20:17.487Z,27.40
2018-08-04T06:22:47.176Z,27.40
2018-08-04T06:25:16.769Z,27.40
2018-08-04T06:27:46.377Z,27.50
2018-08-04T06:30:16.069Z,27.60
2018-08-04T06:32:45.594Z,27.70
2018-08-04T06:35:15.225Z,27.80
2018-08-04T06:37:44.872Z,27.80
2018-08-04T06:40:14.453Z,27.90
2018-08-04T06:42:44.037Z,27.90
2018-08-04T06:45:13.655Z,28.00
2018-08-04T06:47:43.256Z,28.10
2018-08-04T06:50:12.822Z,28.20
2018-08-04T06:52:42.510Z,28.30
2018-08-04T06:55:12.115Z,28.50
2018-08-04T06:57:41.681Z,28.40
2018-08-04T07:00:11.432Z,28.60
2018-08-04T07:02:40.998Z,28.70
2018-08-04T07:06:07.537Z,28.80
2018-08-04T07:08:37.156Z,28.80
2018-08-04T07:11:06.851Z,28.70
2018-08-04T07:13:36.591Z,28.60
2018-08-04T07:16:06.263Z,28.70
2018-08-04T07:18:36.213Z,28.80
2018-08-04T07:21:07.868Z,29.00
2018-08-04T07:23:37.531Z,29.10
2018-08-04T07:29:29.364Z,29.20
2018-08-04T07:31:58.998Z,29.20
2018-08-04T07:34:28.579Z,29.40
2018-08-04T07:36:58.256Z,29.40
2018-08-04T07:39:27.888Z,29.50
2018-08-04T07:41:57.595Z,29.50
2018-08-04T07:44:27.158Z,29.60
2018-08-04T07:46:56.765Z,29.60
2018-08-04T07:49:26.371Z,29.60
2018-08-04T07:51:56.072Z,29.60
2018-08-04T07:54:25.720Z,29.60
2018-08-04T07:56:55.439Z,29.60
2018-08-04T07:59:25.118Z,29.60
2018-08-04T08:01:54.746Z,29.60
2018-08-04T08:04:24.330Z,29.60
2018-08-04T08:06:53.903Z,29.60
2018-08-04T08:09:23.527Z,29.60
2018-08-04T08:11:54.339Z,29.60
2018-08-04T08:14:26.501Z,29.60
2018-08-04T08:16:57.638Z,29.70
2018-08-04T08:19:29.159Z,29.70
2018-08-04T08:21:58.798Z,29.80
2018-08-04T08:24:28.523Z,29.90
2018-08-04T08:26:58.278Z,30.10
2018-08-04T08:29:31.851Z,30.00
2018-08-04T08:32:01.958Z,29.80
2018-08-04T08:34:32.172Z,29.90
2018-08-04T08:37:02.429Z,30.10
2018-08-04T08:39:32.570Z,30.20
2018-08-04T08:42:02.701Z,30.30
2018-08-04T08:44:32.973Z,30.40
2018-08-04T08:47:03.045Z,30.60
2018-08-04T08:49:33.055Z,30.60
2018-08-04T08:52:03.065Z,30.70
2018-08-04T08:54:33.148Z,30.60
2018-08-04T08:57:03.272Z,30.60
2018-08-04T08:59:33.392Z,30.60
2018-08-04T09:02:03.396Z,30.70
2018-08-04T09:04:33.565Z,30.70
2018-08-04T09:07:03.708Z,30.70
2018-08-04T09:09:33.778Z,30.70
2018-08-04T09:12:03.929Z,30.80
2018-08-04T09:14:34.082Z,30.80
2018-08-04T09:17:04.231Z,30.80
2018-08-04T09:19:34.223Z,30.70
2018-08-04T09:22:04.286Z,30.90
2018-08-04T09:24:34.343Z,31.20
2018-08-04T09:27:04.437Z,31.00
2018-08-04T09:29:34.162Z,30.90
2018-08-04T09:32:03.854Z,31.10
2018-08-04T09:34:33.592Z,31.30
2018-08-04T09:37:03.238Z,31.50
2018-08-04T09:39:32.875Z,31.30
2018-08-04T09:42:02.553Z,31.20
2018-08-04T09:44:32.302Z,31.40
2018-08-04T09:49:38.112Z,31.50
2018-08-04T09:52:08.044Z,31.70
2018-08-04T09:54:37.732Z,31.40
2018-08-04T09:57:09.662Z,31.60
2018-08-04T09:59:39.491Z,31.70
2018-08-04T10:02:11.022Z,31.90
2018-08-04T10:04:42.199Z,31.80
2018-08-04T10:07:13.790Z,31.70
2018-08-04T10:09:43.383Z,31.70
2018-08-04T10:12:13.172Z,31.90
2018-08-04T10:14:43.086Z,31.90
2018-08-04T10:17:12.848Z,32.10
2018-08-04T10:19:43.153Z,32.10
2018-08-04T10:22:14.956Z,32.30
2018-08-04T10:24:44.727Z,32.30
2018-08-04T10:27:14.456Z,32.50
2018-08-04T10:29:44.273Z,32.40
2018-08-04T10:32:14.045Z,32.40
2018-08-04T10:34:43.642Z,32.30
2018-08-04T10:39:42.334Z,32.40
2018-08-04T10:42:12.044Z,32.60
2018-08-04T10:44:41.683Z,32.80
2018-08-04T10:47:11.246Z,32.50
2018-08-04T10:49:40.880Z,32.30
2018-08-04T10:52:10.737Z,32.60
2018-08-04T10:54:40.477Z,32.70
2018-08-04T10:57:10.183Z,32.80
2018-08-04T10:59:39.958Z,32.80
2018-08-04T11:02:09.866Z,32.90
2018-08-04T11:04:39.625Z,33.00
2018-08-04T11:07:09.303Z,33.10
2018-08-04T11:09:38.964Z,33.10
2018-08-04T11:12:08.681Z,33.20
2018-08-04T11:14:38.325Z,33.20
2018-08-04T11:17:08.116Z,33.30
2018-08-04T11:19:37.729Z,33.30
2018-08-04T11:22:07.420Z,33.40
2018-08-04T11:24:37.412Z,33.50
2018-08-04T11:27:07.156Z,33.30
2018-08-04T11:29:36.812Z,33.10
2018-08-04T11:32:06.491Z,33.10
2018-08-04T11:34:42.533Z,33.00
2018-08-04T11:37:14.731Z,33.00
2018-08-04T11:39:44.622Z,32.90
2018-08-04T11:42:14.607Z,33.00
2018-08-04T11:44:44.251Z,33.00
2018-08-04T11:47:20.796Z,33.30
2018-08-04T11:49:50.759Z,33.10
2018-08-04T11:52:20.519Z,33.20
2018-08-04T11:54:50.175Z,33.10
2018-08-04T11:57:19.954Z,33.10
2018-08-04T11:59:49.657Z,33.30
2018-08-04T12:02:19.322Z,33.50
2018-08-04T12:04:49.259Z,33.90
2018-08-04T12:07:19.053Z,33.80
2018-08-04T12:09:48.693Z,34.10
2018-08-04T12:12:18.509Z,34.30
2018-08-04T12:14:48.099Z,34.50
2018-08-04T12:17:17.734Z,34.50
2018-08-04T12:19:47.370Z,34.30
2018-08-04T12:22:17.115Z,34.60
2018-08-04T12:24:46.826Z,34.30
2018-08-04T12:27:16.556Z,34.90
2018-08-04T12:29:46.296Z,34.50
2018-08-04T12:32:16.016Z,33.80
2018-08-04T12:34:45.747Z,33.10
2018-08-04T12:37:15.481Z,33.60
2018-08-04T12:39:50.816Z,34.20
2018-08-04T12:42:27.375Z,33.60
2018-08-04T12:45:04.874Z,34.50
2018-08-04T12:47:34.710Z,34.70
2018-08-04T12:50:04.705Z,34.70
2018-08-04T12:52:34.421Z,35.20
2018-08-04T12:55:04.213Z,35.50
2018-08-04T12:57:34.083Z,35.50
2018-08-04T13:00:04.026Z,35.40
2018-08-04T13:02:33.905Z,35.70
2018-08-04T13:05:03.672Z,35.60
2018-08-04T13:07:33.404Z,35.80
2018-08-04T13:10:03.212Z,35.70
2018-08-04T13:12:32.988Z,35.90
2018-08-04T13:15:02.644Z,35.70
2018-08-04T13:17:32.556Z,35.40
2018-08-04T13:20:02.353Z,35.90
2018-08-04T13:22:32.108Z,36.10
2018-08-04T13:25:01.866Z,36.30
2018-08-04T13:27:31.809Z,36.40
2018-08-04T13:30:01.496Z,36.60
2018-08-04T13:32:31.137Z,36.80
2018-08-04T13:35:00.794Z,36.30
2018-08-04T13:37:30.506Z,36.20
2018-08-04T13:40:00.119Z,36.30
2018-08-04T13:42:29.796Z,36.80
2018-08-04T13:44:59.421Z,36.80
2018-08-04T13:47:29.194Z,37.00
2018-08-04T13:49:58.821Z,36.90
2018-08-04T13:52:28.425Z,37.30
2018-08-04T13:54:58.109Z,37.10
2018-08-04T13:57:27.695Z,36.60
2018-08-04T13:59:57.445Z,36.80
2018-08-04T14:02:27.106Z,37.10
2018-08-04T14:04:56.713Z,37.20
2018-08-04T14:07:26.301Z,37.10
2018-08-04T14:09:56.287Z,37.00
2018-08-04T14:12:26.016Z,37.30
2018-08-04T14:14:55.639Z,37.40
2018-08-04T14:17:25.303Z,37.30
2018-08-04T14:19:54.894Z,37.30
2018-08-04T14:22:24.519Z,38.00
2018-08-04T14:24:54.170Z,37.50
2018-08-04T14:27:23.773Z,37.00
2018-08-04T14:29:53.401Z,36.50
2018-08-04T14:32:23.081Z,35.70
2018-08-04T14:34:52.819Z,36.30
2018-08-04T14:37:22.388Z,37.00
2018-08-04T14:39:51.941Z,37.70
2018-08-04T14:42:21.580Z,37.70
2018-08-04T14:44:51.262Z,38.30
2018-08-04T14:47:20.860Z,36.80
2018-08-04T14:49:50.476Z,36.70
2018-08-04T14:52:20.175Z,36.60
2018-08-04T14:54:49.999Z,36.40
2018-08-04T14:57:19.707Z,36.60
2018-08-04T14:59:52.701Z,36.50
2018-08-04T15:02:22.406Z,37.10
2018-08-04T15:04:52.038Z,36.80
2018-08-04T15:07:21.737Z,36.30
2018-08-04T15:09:51.440Z,36.70
2018-08-04T15:12:21.160Z,36.60
2018-08-04T15:14:50.712Z,36.30
2018-08-04T15:17:20.491Z,36.20
2018-08-04T15:19:50.174Z,36.50
2018-08-04T15:22:19.770Z,37.20
2018-08-04T15:27:18.416Z,38.60
2018-08-04T15:29:48.131Z,38.80
2018-08-04T15:32:17.751Z,38.40
2018-08-04T15:34:47.458Z,37.70
2018-08-04T15:37:17.044Z,36.90
2018-08-04T15:39:46.739Z,35.80
2018-08-04T15:42:16.336Z,35.50
2018-08-04T15:44:46.131Z,35.60
2018-08-04T15:47:15.746Z,34.80
2018-08-04T15:52:39.077Z,34.80
2018-08-04T15:55:08.904Z,34.40
2018-08-04T15:57:38.570Z,34.80
2018-08-04T16:00:09.380Z,34.00
2018-08-04T16:02:45.451Z,33.50
2018-08-04T16:05:15.174Z,33.50
2018-08-04T16:07:47.629Z,33.80
2018-08-04T16:10:17.605Z,33.40
2018-08-04T16:12:47.200Z,33.30
2018-08-04T16:15:16.774Z,33.20
2018-08-04T16:20:16.833Z,33.20
2018-08-04T16:22:46.475Z,32.90
2018-08-04T16:25:16.373Z,33.00
2018-08-04T16:27:46.034Z,32.90
2018-08-04T16:30:15.700Z,33.00
2018-08-04T16:32:45.271Z,32.90
2018-08-04T16:35:14.836Z,32.70
2018-08-04T16:37:44.428Z,32.50
2018-08-04T16:40:14.068Z,32.70
2018-08-04T16:42:43.657Z,32.50
2018-08-04T16:45:13.289Z,32.30
2018-08-04T16:47:42.943Z,32.40
2018-08-04T16:50:12.520Z,32.30
2018-08-04T16:55:35.371Z,32.40
2018-08-04T16:58:05.110Z,32.40
2018-08-04T17:00:34.695Z,32.30
2018-08-04T17:03:04.886Z,32.20
2018-08-04T17:05:35.289Z,32.20
2018-08-04T17:08:05.118Z,32.10
2018-08-04T17:10:41.423Z,32.20
2018-08-04T17:13:11.134Z,32.20
2018-08-04T17:15:40.801Z,32.20
2018-08-04T17:18:10.583Z,32.20
2018-08-04T17:20:40.324Z,32.30
2018-08-04T17:23:10.671Z,32.10
2018-08-04T17:25:40.235Z,32.20
2018-08-04T17:28:09.940Z,32.10
2018-08-04T17:30:39.636Z,32.00
2018-08-04T17:33:09.215Z,32.00
2018-08-04T17:35:38.841Z,31.90
2018-08-04T17:38:08.478Z,31.80
2018-08-04T17:40:38.233Z,31.70
2018-08-04T17:43:07.953Z,31.70
2018-08-04T17:45:37.757Z,31.70
2018-08-04T17:48:07.413Z,31.60
2018-08-04T17:50:36.987Z,31.60
2018-08-04T17:53:06.732Z,31.60
2018-08-04T17:55:36.276Z,31.50
2018-08-04T17:58:06.078Z,31.40
2018-08-04T18:00:35.684Z,31.40
2018-08-04T18:03:05.331Z,31.30
2018-08-04T18:05:35.045Z,31.40
2018-08-04T18:08:04.694Z,31.30
2018-08-04T18:10:34.330Z,31.20
2018-08-04T18:13:04.139Z,31.10
2018-08-04T18:15:33.743Z,31.10
2018-08-04T18:18:03.364Z,31.00
2018-08-04T18:20:33.047Z,31.00
2018-08-04T18:23:03.263Z,30.80
2018-08-04T18:25:32.934Z,30.80
2018-08-04T18:28:02.577Z,30.90
2018-08-04T18:30:32.266Z,31.00
2018-08-04T18:33:01.951Z,30.90
2018-08-04T18:35:31.557Z,30.80
2018-08-04T18:38:01.303Z,30.80
2018-08-04T18:42:59.948Z,30.40
2018-08-04T18:45:29.681Z,30.50
2018-08-04T18:47:59.432Z,30.50
2018-08-04T18:50:31.971Z,30.50
2018-08-04T18:53:01.850Z,30.50
2018-08-04T18:55:31.521Z,30.50
2018-08-04T18:58:01.486Z,30.50
2018-08-04T19:00:31.234Z,30.40
2018-08-04T19:03:01.683Z,30.50
2018-08-04T19:05:31.709Z,30.50
2018-08-04T19:08:01.374Z,30.40
2018-08-04T19:10:30.985Z,30.30
2018-08-04T19:13:00.643Z,30.40
2018-08-04T19:15:30.508Z,30.40
2018-08-04T19:18:00.155Z,30.20
2018-08-04T19:20:30.145Z,30.20
2018-08-04T19:23:00.208Z,30.20
2018-08-04T19:25:29.967Z,30.20
2018-08-04T19:27:59.815Z,30.30
2018-08-04T19:30:29.472Z,30.10
2018-08-04T19:33:01.751Z,30.00
2018-08-04T19:35:32.039Z,29.90
2018-08-04T19:38:02.317Z,29.90
2018-08-04T19:40:32.594Z,29.90
2018-08-04T19:43:02.522Z,29.90
2018-08-04T19:45:32.499Z,29.90
2018-08-04T19:48:02.695Z,29.80
2018-08-04T19:50:32.622Z,29.80
2018-08-04T19:53:02.614Z,29.70
2018-08-04T19:55:35.027Z,29.70
2018-08-04T19:58:04.893Z,29.80
2018-08-04T20:00:34.848Z,29.90
2018-08-04T20:03:04.890Z,29.80
2018-08-04T20:05:35.945Z,29.80
2018-08-04T20:08:05.633Z,29.70
2018-08-04T20:10:35.735Z,29.50
2018-08-04T20:13:05.460Z,29.30
2018-08-04T20:15:35.523Z,29.40
2018-08-04T20:18:05.433Z,29.20
2018-08-04T20:20:35.224Z,29.10
2018-08-04T20:23:05.041Z,29.20
2018-08-04T20:25:35.279Z,29.30
2018-08-04T20:28:05.339Z,29.30
2018-08-04T20:30:35.467Z,29.40
2018-08-04T20:33:05.787Z,29.40
2018-08-04T20:35:36.411Z,29.20
2018-08-04T20:38:06.436Z,29.10
2018-08-04T20:40:38.587Z,27.40
2018-08-04T20:43:09.191Z,29.20
2018-08-04T20:45:39.485Z,29.10
2018-08-04T20:48:09.991Z,29.10
2018-08-04T20:53:14.570Z,29.00
2018-08-04T20:55:44.442Z,29.00
2018-08-04T20:58:14.230Z,29.00
2018-08-04T21:00:48.709Z,28.90
2018-08-04T21:03:18.991Z,28.80
2018-08-04T21:05:49.073Z,28.80
2018-08-04T21:08:18.885Z,28.90
2018-08-04T21:10:50.582Z,28.80
2018-08-04T21:15:50.255Z,28.70
2018-08-04T21:18:20.170Z,28.70
2018-08-04T21:20:50.208Z,28.70
2018-08-04T21:23:20.076Z,28.80
2018-08-04T21:28:20.122Z,28.70
2018-08-04T21:30:50.381Z,28.70
2018-08-04T21:33:20.229Z,28.70
2018-08-04T21:35:50.069Z,28.70
2018-08-04T21:38:19.749Z,28.60
2018-08-04T21:40:49.486Z,28.70
2018-08-04T21:43:19.368Z,28.70
2018-08-04T21:45:49.763Z,28.60
2018-08-04T21:48:19.860Z,28.50
2018-08-04T21:50:49.640Z,28.40
2018-08-04T21:53:19.270Z,28.50
2018-08-04T21:55:49.730Z,28.50
2018-08-04T21:58:21.653Z,28.50
2018-08-04T22:00:58.385Z,28.60
2018-08-04T22:03:28.604Z,28.60
2018-08-04T22:05:58.320Z,28.60
2018-08-04T22:08:38.685Z,28.70
2018-08-04T22:11:08.509Z,28.60
2018-08-04T22:13:38.239Z,28.50
2018-08-04T22:16:07.866Z,28.60
2018-08-04T22:18:37.509Z,28.60
2018-08-04T22:21:07.318Z,28.60
2018-08-04T22:23:37.367Z,28.60
2018-08-04T22:26:07.368Z,28.50
2018-08-04T22:28:37.720Z,28.40
2018-08-04T22:31:07.683Z,28.30
2018-08-04T22:36:06.618Z,28.30
2018-08-04T22:38:36.625Z,28.20
2018-08-04T22:41:06.341Z,28.30
2018-08-04T22:43:36.023Z,28.20
2018-08-04T22:46:10.195Z,28.10
2018-08-04T22:48:40.002Z,28.10
2018-08-04T22:51:09.814Z,28.10
2018-08-04T22:53:39.703Z,28.20
2018-08-04T22:56:09.266Z,28.10
2018-08-04T22:58:39.574Z,28.10
2018-08-04T23:01:09.253Z,28.20
2018-08-04T23:03:39.066Z,28.10
2018-08-04T23:06:09.281Z,28.10
2018-08-04T23:08:39.393Z,28.20
2018-08-04T23:11:09.055Z,28.10
2018-08-04T23:13:38.762Z,28.10
2018-08-04T23:16:08.425Z,28.20
2018-08-04T23:18:38.054Z,28.10
2018-08-04T23:21:07.802Z,28.20
2018-08-04T23:23:37.401Z,28.30
2018-08-04T23:26:07.200Z,28.20
2018-08-04T23:28:36.830Z,28.20
2018-08-04T23:31:06.418Z,28.10
2018-08-04T23:33:36.057Z,28.10
2018-08-04T23:36:05.667Z,28.00
2018-08-04T23:38:35.311Z,27.90
2018-08-04T23:41:04.940Z,27.80
2018-08-04T23:43:34.685Z,27.80
2018-08-04T23:46:04.487Z,27.80
2018-08-04T23:48:34.219Z,27.70
2018-08-04T23:51:03.908Z,27.50
2018-08-04T23:53:33.586Z,27.30
2018-08-04T23:56:03.175Z,27.50
2018-08-04T23:58:32.802Z,27.60
